sensor_id;sensor_type;location;lat;lon;timestamp;pressure;altitude;pressure_sealevel;temperature;humidity
62655;BME280;48717;55.556;37.816;2023-03-18T00:00:27;101061.31;;;-2.38;46.97
62655;BME280;48717;55.556;37.816;2023-03-18T00:02:55;101051.97;;;-2.48;47.44
62655;BME280;48717;55.556;37.816;2023-03-18T00:05:22;101031.34;;;-2.60;47.25
62655;BME280;48717;55.556;37.816;2023-03-18T00:07:49;101044.56;;;-2.55;47.60
62655;BME280;48717;55.556;37.816;2023-03-18T00:10:17;101063.44;;;-2.44;46.90
62655;BME280;48717;55.556;37.816;2023-03-18T00:12:44;101024.72;;;-2.68;47.97
62655;BME280;48717;55.556;37.816;2023-03-18T00:15:13;101067.25;;;-2.51;47.49
62655;BME280;48717;55.556;37.816;2023-03-18T00:17:41;101072.53;;;-2.50;48.16
62655;BME280;48717;55.556;37.816;2023-03-18T00:20:09;101058.81;;;-2.49;47.85
62655;BME280;48717;55.556;37.816;2023-03-18T00:22:40;101075.78;;;-2.52;48.22
62655;BME280;48717;55.556;37.816;2023-03-18T00:25:08;101072.22;;;-2.54;48.15
62655;BME280;48717;55.556;37.816;2023-03-18T00:27:37;101072.91;;;-2.57;47.81
62655;BME280;48717;55.556;37.816;2023-03-18T00:30:06;101088.72;;;-2.52;48.04
62655;BME280;48717;55.556;37.816;2023-03-18T00:32:34;101075.13;;;-2.62;48.63
62655;BME280;48717;55.556;37.816;2023-03-18T00:35:01;101074.47;;;-2.59;48.29
62655;BME280;48717;55.556;37.816;2023-03-18T00:37:30;101083.91;;;-2.59;49.13
62655;BME280;48717;55.556;37.816;2023-03-18T00:40:00;101080.06;;;-2.65;49.11
62655;BME280;48717;55.556;37.816;2023-03-18T00:42:35;101089.53;;;-2.65;49.06
62655;BME280;48717;55.556;37.816;2023-03-18T00:45:07;101090.19;;;-2.68;49.27
62655;BME280;48717;55.556;37.816;2023-03-18T00:47:36;101094.34;;;-2.70;49.18
62655;BME280;48717;55.556;37.816;2023-03-18T00:50:05;101071.88;;;-2.83;49.47
62655;BME280;48717;55.556;37.816;2023-03-18T00:52:34;101092.53;;;-2.71;49.21
62655;BME280;48717;55.556;37.816;2023-03-18T00:55:02;101089.53;;;-2.77;49.15
62655;BME280;48717;55.556;37.816;2023-03-18T00:57:29;101098.03;;;-2.78;49.32
62655;BME280;48717;55.556;37.816;2023-03-18T00:59:56;101081.75;;;-2.89;49.58
62655;BME280;48717;55.556;37.816;2023-03-18T01:02:26;101103.00;;;-2.81;49.85
62655;BME280;48717;55.556;37.816;2023-03-18T01:04:55;101107.00;;;-2.85;49.32
62655;BME280;48717;55.556;37.816;2023-03-18T01:07:23;101071.31;;;-3.03;49.89
62655;BME280;48717;55.556;37.816;2023-03-18T01:09:50;101080.75;;;-3.03;50.33
62655;BME280;48717;55.556;37.816;2023-03-18T01:12:17;101111.84;;;-2.90;49.58
62655;BME280;48717;55.556;37.816;2023-03-18T01:14:44;101111.50;;;-2.94;49.87
62655;BME280;48717;55.556;37.816;2023-03-18T01:17:11;101091.25;;;-3.12;50.51
62655;BME280;48717;55.556;37.816;2023-03-18T01:19:38;101100.47;;;-3.04;50.28
62655;BME280;48717;55.556;37.816;2023-03-18T01:22:05;101100.78;;;-3.11;50.84
62655;BME280;48717;55.556;37.816;2023-03-18T01:24:40;101097.09;;;-3.15;50.39
62655;BME280;48717;55.556;37.816;2023-03-18T01:27:08;101111.47;;;-3.06;50.49
62655;BME280;48717;55.556;37.816;2023-03-18T01:29:36;101126.97;;;-3.06;51.45
62655;BME280;48717;55.556;37.816;2023-03-18T01:32:07;101115.63;;;-3.08;51.29
62655;BME280;48717;55.556;37.816;2023-03-18T01:34:35;101118.22;;;-3.08;51.50
62655;BME280;48717;55.556;37.816;2023-03-18T01:37:02;101124.69;;;-3.13;51.34
62655;BME280;48717;55.556;37.816;2023-03-18T01:39:32;101127.81;;;-3.18;51.21
62655;BME280;48717;55.556;37.816;2023-03-18T01:42:00;101098.84;;;-3.37;51.26
62655;BME280;48717;55.556;37.816;2023-03-18T01:44:30;101134.31;;;-3.23;51.74
62655;BME280;48717;55.556;37.816;2023-03-18T01:46:58;101130.94;;;-3.22;51.38
62655;BME280;48717;55.556;37.816;2023-03-18T01:49:38;101133.44;;;-3.23;51.77
62655;BME280;48717;55.556;37.816;2023-03-18T01:52:10;101131.03;;;-3.32;52.13
62655;BME280;48717;55.556;37.816;2023-03-18T01:54:43;101139.03;;;-3.29;52.22
62655;BME280;48717;55.556;37.816;2023-03-18T01:57:12;101136.44;;;-3.29;52.20
62655;BME280;48717;55.556;37.816;2023-03-18T01:59:45;101139.56;;;-3.33;52.65
62655;BME280;48717;55.556;37.816;2023-03-18T02:02:14;101150.88;;;-3.31;51.35
62655;BME280;48717;55.556;37.816;2023-03-18T02:04:46;101144.59;;;-3.35;51.53
62655;BME280;48717;55.556;37.816;2023-03-18T02:07:16;101155.59;;;-3.37;52.05
62655;BME280;48717;55.556;37.816;2023-03-18T02:09:44;101155.59;;;-3.37;52.46
62655;BME280;48717;55.556;37.816;2023-03-18T02:12:15;101160.38;;;-3.42;52.99
62655;BME280;48717;55.556;37.816;2023-03-18T02:14:44;101158.91;;;-3.50;52.63
62655;BME280;48717;55.556;37.816;2023-03-18T02:17:35;101143.25;;;-3.64;52.56
62655;BME280;48717;55.556;37.816;2023-03-18T02:20:38;101164.06;;;-3.50;53.56
62655;BME280;48717;55.556;37.816;2023-03-18T02:26:46;101181.75;;;-3.55;53.15
62655;BME280;48717;55.556;37.816;2023-03-18T02:29:22;101149.59;;;-3.71;52.20
62655;BME280;48717;55.556;37.816;2023-03-18T02:32:00;101186.00;;;-3.56;52.76
62655;BME280;48717;55.556;37.816;2023-03-18T02:34:29;101161.22;;;-3.76;53.01
62655;BME280;48717;55.556;37.816;2023-03-18T02:36:56;101157.16;;;-3.84;52.88
62655;BME280;48717;55.556;37.816;2023-03-18T02:39:24;101174.66;;;-3.80;53.48
62655;BME280;48717;55.556;37.816;2023-03-18T02:41:54;101187.00;;;-3.76;53.35
62655;BME280;48717;55.556;37.816;2023-03-18T02:44:21;101185.69;;;-3.71;52.95
62655;BME280;48717;55.556;37.816;2023-03-18T02:47:16;101180.72;;;-3.80;54.50
62655;BME280;48717;55.556;37.816;2023-03-18T02:49:45;101199.88;;;-3.65;54.23
62655;BME280;48717;55.556;37.816;2023-03-18T02:52:13;101197.56;;;-3.73;53.05
62655;BME280;48717;55.556;37.816;2023-03-18T02:54:40;101192.69;;;-3.80;53.83
62655;BME280;48717;55.556;37.816;2023-03-18T02:57:08;101204.31;;;-3.75;54.50
62655;BME280;48717;55.556;37.816;2023-03-18T02:59:37;101206.09;;;-3.74;52.94
62655;BME280;48717;55.556;37.816;2023-03-18T03:02:04;101214.63;;;-3.75;53.88
62655;BME280;48717;55.556;37.816;2023-03-18T03:04:32;101195.28;;;-3.80;53.55
62655;BME280;48717;55.556;37.816;2023-03-18T03:07:00;101199.97;;;-3.86;54.21
62655;BME280;48717;55.556;37.816;2023-03-18T03:09:35;101180.41;;;-3.95;54.34
62655;BME280;48717;55.556;37.816;2023-03-18T03:12:04;101214.09;;;-3.81;54.20
62655;BME280;48717;55.556;37.816;2023-03-18T03:14:32;101219.53;;;-3.88;54.67
62655;BME280;48717;55.556;37.816;2023-03-18T03:17:00;101210.41;;;-3.95;54.25
62655;BME280;48717;55.556;37.816;2023-03-18T03:19:31;101230.63;;;-3.89;54.55
62655;BME280;48717;55.556;37.816;2023-03-18T03:22:00;101220.31;;;-3.89;53.71
62655;BME280;48717;55.556;37.816;2023-03-18T03:24:27;101212.00;;;-3.97;54.73
62655;BME280;48717;55.556;37.816;2023-03-18T03:26:54;101225.25;;;-3.92;54.04
62655;BME280;48717;55.556;37.816;2023-03-18T03:29:21;101208.41;;;-3.99;54.85
62655;BME280;48717;55.556;37.816;2023-03-18T03:31:48;101238.38;;;-3.89;55.09
62655;BME280;48717;55.556;37.816;2023-03-18T03:34:15;101212.47;;;-3.91;54.22
62655;BME280;48717;55.556;37.816;2023-03-18T03:36:42;101227.72;;;-3.94;55.51
62655;BME280;48717;55.556;37.816;2023-03-18T03:39:09;101218.28;;;-3.94;55.35
62655;BME280;48717;55.556;37.816;2023-03-18T03:41:36;101202.38;;;-4.10;54.28
62655;BME280;48717;55.556;37.816;2023-03-18T03:44:03;101231.47;;;-4.01;54.20
62655;BME280;48717;55.556;37.816;2023-03-18T03:46:30;101224.47;;;-4.02;55.48
62655;BME280;48717;55.556;37.816;2023-03-18T03:48:58;101210.34;;;-4.07;54.64
62655;BME280;48717;55.556;37.816;2023-03-18T03:51:25;101216.88;;;-4.00;55.32
62655;BME280;48717;55.556;37.816;2023-03-18T03:53:52;101236.03;;;-3.86;55.48
62655;BME280;48717;55.556;37.816;2023-03-18T03:56:20;101237.56;;;-3.78;55.77
62655;BME280;48717;55.556;37.816;2023-03-18T03:58:47;101230.28;;;-3.61;54.37
62655;BME280;48717;55.556;37.816;2023-03-18T04:01:16;101216.06;;;-3.56;54.97
62655;BME280;48717;55.556;37.816;2023-03-18T04:03:45;101239.19;;;-3.46;55.20
62655;BME280;48717;55.556;37.816;2023-03-18T04:06:12;101215.88;;;-3.47;54.64
62655;BME280;48717;55.556;37.816;2023-03-18T04:08:47;101223.97;;;-3.43;54.57
62655;BME280;48717;55.556;37.816;2023-03-18T04:11:14;101223.03;;;-3.33;54.07
62655;BME280;48717;55.556;37.816;2023-03-18T04:13:41;101244.41;;;-3.11;52.87
62655;BME280;48717;55.556;37.816;2023-03-18T04:16:08;101240.97;;;-3.00;54.10
62655;BME280;48717;55.556;37.816;2023-03-18T04:18:36;101204.69;;;-3.13;53.39
62655;BME280;48717;55.556;37.816;2023-03-18T04:21:04;101235.09;;;-2.75;52.66
62655;BME280;48717;55.556;37.816;2023-03-18T04:23:42;101238.28;;;-2.55;52.07
62655;BME280;48717;55.556;37.816;2023-03-18T04:26:09;101246.50;;;-2.49;52.68
62655;BME280;48717;55.556;37.816;2023-03-18T04:28:38;101226.28;;;-2.43;52.11
62655;BME280;48717;55.556;37.816;2023-03-18T04:31:08;101233.59;;;-2.25;51.45
62655;BME280;48717;55.556;37.816;2023-03-18T04:33:35;101246.53;;;-2.01;51.21
62655;BME280;48717;55.556;37.816;2023-03-18T04:36:03;101233.38;;;-2.04;50.27
62655;BME280;48717;55.556;37.816;2023-03-18T04:38:31;101250.34;;;-1.84;50.26
62655;BME280;48717;55.556;37.816;2023-03-18T04:40:59;101249.22;;;-1.88;50.29
62655;BME280;48717;55.556;37.816;2023-03-18T04:43:26;101252.38;;;-1.80;49.85
62655;BME280;48717;55.556;37.816;2023-03-18T04:45:53;101236.97;;;-1.78;50.48
62655;BME280;48717;55.556;37.816;2023-03-18T04:48:20;101250.41;;;-1.59;49.62
62655;BME280;48717;55.556;37.816;2023-03-18T04:50:48;101252.66;;;-1.51;49.73
62655;BME280;48717;55.556;37.816;2023-03-18T04:53:21;101245.97;;;-1.36;49.27
62655;BME280;48717;55.556;37.816;2023-03-18T04:55:48;101249.19;;;-1.14;49.40
62655;BME280;48717;55.556;37.816;2023-03-18T04:58:21;101252.81;;;-0.99;48.91
62655;BME280;48717;55.556;37.816;2023-03-18T05:01:00;101259.59;;;-0.75;47.61
62655;BME280;48717;55.556;37.816;2023-03-18T05:03:33;101260.19;;;-0.66;47.16
62655;BME280;48717;55.556;37.816;2023-03-18T05:06:01;101262.22;;;-0.62;47.37
62655;BME280;48717;55.556;37.816;2023-03-18T05:08:39;101260.44;;;-0.49;47.39
62655;BME280;48717;55.556;37.816;2023-03-18T05:11:06;101274.03;;;-0.27;47.05
62655;BME280;48717;55.556;37.816;2023-03-18T05:13:34;101262.28;;;-0.21;47.42
62655;BME280;48717;55.556;37.816;2023-03-18T05:16:02;101274.28;;;0.04;46.69
62655;BME280;48717;55.556;37.816;2023-03-18T05:18:30;101270.47;;;0.25;46.41
62655;BME280;48717;55.556;37.816;2023-03-18T05:21:01;101277.22;;;0.50;45.06
62655;BME280;48717;55.556;37.816;2023-03-18T05:23:28;101278.41;;;0.69;44.51
62655;BME280;48717;55.556;37.816;2023-03-18T05:25:56;101265.38;;;0.83;43.85
62655;BME280;48717;55.556;37.816;2023-03-18T05:28:25;101267.31;;;1.00;43.94
62655;BME280;48717;55.556;37.816;2023-03-18T05:31:12;101283.47;;;1.10;43.63
62655;BME280;48717;55.556;37.816;2023-03-18T05:33:40;101267.25;;;1.14;43.04
62655;BME280;48717;55.556;37.816;2023-03-18T05:36:10;101269.75;;;1.12;42.95
62655;BME280;48717;55.556;37.816;2023-03-18T05:38:47;101246.28;;;1.11;42.50
62655;BME280;48717;55.556;37.816;2023-03-18T05:41:14;101266.31;;;1.42;42.00
62655;BME280;48717;55.556;37.816;2023-03-18T05:43:41;101278.81;;;1.63;41.82
62655;BME280;48717;55.556;37.816;2023-03-18T05:46:08;101275.13;;;1.74;42.32
62655;BME280;48717;55.556;37.816;2023-03-18T05:48:51;101285.06;;;1.97;41.55
62655;BME280;48717;55.556;37.816;2023-03-18T05:51:20;101273.03;;;2.14;40.75
62655;BME280;48717;55.556;37.816;2023-03-18T05:53:47;101282.97;;;2.21;40.77
62655;BME280;48717;55.556;37.816;2023-03-18T05:56:25;101257.19;;;2.26;40.66
62655;BME280;48717;55.556;37.816;2023-03-18T05:58:57;101273.88;;;2.61;40.00
62655;BME280;48717;55.556;37.816;2023-03-18T06:01:45;101276.75;;;2.66;40.10
62655;BME280;48717;55.556;37.816;2023-03-18T06:04:12;101275.06;;;2.83;39.95
62655;BME280;48717;55.556;37.816;2023-03-18T06:06:39;101256.91;;;3.01;39.39
62655;BME280;48717;55.556;37.816;2023-03-18T06:09:08;101271.34;;;2.94;39.85
62655;BME280;48717;55.556;37.816;2023-03-18T06:11:37;101284.91;;;2.89;39.68
62655;BME280;48717;55.556;37.816;2023-03-18T06:14:06;101280.53;;;2.87;40.35
62655;BME280;48717;55.556;37.816;2023-03-18T06:16:34;101284.28;;;2.93;39.69
62655;BME280;48717;55.556;37.816;2023-03-18T06:19:02;101275.81;;;2.97;38.58
62655;BME280;48717;55.556;37.816;2023-03-18T06:21:30;101291.13;;;3.24;38.12
62655;BME280;48717;55.556;37.816;2023-03-18T06:24:00;101296.97;;;3.36;37.94
62655;BME280;48717;55.556;37.816;2023-03-18T06:26:30;101283.38;;;3.42;37.91
62655;BME280;48717;55.556;37.816;2023-03-18T06:28:57;101263.41;;;3.26;37.83
62655;BME280;48717;55.556;37.816;2023-03-18T06:31:25;101291.25;;;3.44;37.36
62655;BME280;48717;55.556;37.816;2023-03-18T06:33:53;101304.28;;;3.44;37.56
62655;BME280;48717;55.556;37.816;2023-03-18T06:36:22;101294.19;;;3.50;37.23
62655;BME280;48717;55.556;37.816;2023-03-18T06:38:51;101286.53;;;3.53;37.22
62655;BME280;48717;55.556;37.816;2023-03-18T06:41:20;101299.59;;;3.71;36.42
62655;BME280;48717;55.556;37.816;2023-03-18T06:44:01;101303.41;;;3.78;36.23
62655;BME280;48717;55.556;37.816;2023-03-18T06:46:30;101287.44;;;3.88;36.54
62655;BME280;48717;55.556;37.816;2023-03-18T06:48:59;101307.28;;;4.03;36.09
62655;BME280;48717;55.556;37.816;2023-03-18T06:51:31;101288.41;;;4.09;35.98
62655;BME280;48717;55.556;37.816;2023-03-18T06:54:00;101294.44;;;4.26;36.30
62655;BME280;48717;55.556;37.816;2023-03-18T06:56:30;101312.94;;;4.49;36.35
62655;BME280;48717;55.556;37.816;2023-03-18T06:59:11;101304.78;;;4.79;35.70
62655;BME280;48717;55.556;37.816;2023-03-18T07:01:38;101293.91;;;4.69;35.08
62655;BME280;48717;55.556;37.816;2023-03-18T07:04:05;101279.16;;;4.72;35.25
62655;BME280;48717;55.556;37.816;2023-03-18T07:06:33;101314.81;;;4.89;34.77
62655;BME280;48717;55.556;37.816;2023-03-18T07:09:00;101307.22;;;4.94;34.41
62655;BME280;48717;55.556;37.816;2023-03-18T07:11:28;101299.44;;;4.95;34.06
62655;BME280;48717;55.556;37.816;2023-03-18T07:13:57;101303.97;;;5.19;33.59
62655;BME280;48717;55.556;37.816;2023-03-18T07:16:31;101307.63;;;5.43;33.48
62655;BME280;48717;55.556;37.816;2023-03-18T07:18:58;101308.03;;;5.52;33.67
62655;BME280;48717;55.556;37.816;2023-03-18T07:21:29;101314.19;;;5.95;32.10
62655;BME280;48717;55.556;37.816;2023-03-18T07:23:56;101302.38;;;6.04;32.01
62655;BME280;48717;55.556;37.816;2023-03-18T07:26:24;101307.16;;;6.35;31.53
62655;BME280;48717;55.556;37.816;2023-03-18T07:28:51;101307.66;;;6.49;31.48
62655;BME280;48717;55.556;37.816;2023-03-18T07:31:18;101287.06;;;6.59;31.08
62655;BME280;48717;55.556;37.816;2023-03-18T07:33:45;101310.13;;;6.90;30.08
62655;BME280;48717;55.556;37.816;2023-03-18T07:36:12;101294.19;;;7.09;30.33
62655;BME280;48717;55.556;37.816;2023-03-18T07:38:39;101298.44;;;7.29;29.70
62655;BME280;48717;55.556;37.816;2023-03-18T07:41:06;101289.09;;;7.38;29.34
62655;BME280;48717;55.556;37.816;2023-03-18T07:43:34;101301.97;;;7.80;29.24
62655;BME280;48717;55.556;37.816;2023-03-18T07:46:02;101289.69;;;8.07;27.80
62655;BME280;48717;55.556;37.816;2023-03-18T07:48:31;101305.88;;;8.47;27.41
62655;BME280;48717;55.556;37.816;2023-03-18T07:51:00;101273.03;;;8.61;27.04
62655;BME280;48717;55.556;37.816;2023-03-18T07:53:27;101304.59;;;8.91;27.15
62655;BME280;48717;55.556;37.816;2023-03-18T07:55:55;101270.47;;;8.94;27.01
62655;BME280;48717;55.556;37.816;2023-03-18T07:58:22;101294.97;;;9.22;26.69
62655;BME280;48717;55.556;37.816;2023-03-18T08:00:51;101237.31;;;8.99;25.92
62655;BME280;48717;55.556;37.816;2023-03-18T08:03:19;101304.78;;;9.60;25.81
62655;BME280;48717;55.556;37.816;2023-03-18T08:05:46;101156.03;;;8.78;25.90
62655;BME280;48717;55.556;37.816;2023-03-18T08:08:14;101191.53;;;8.94;25.28
62655;BME280;48717;55.556;37.816;2023-03-18T08:10:42;101232.50;;;9.16;25.20
62655;BME280;48717;55.556;37.816;2023-03-18T08:13:09;101295.66;;;9.81;24.85
62655;BME280;48717;55.556;37.816;2023-03-18T08:15:40;101224.72;;;9.53;23.81
62655;BME280;48717;55.556;37.816;2023-03-18T08:18:07;101301.44;;;10.01;23.71
62655;BME280;48717;55.556;37.816;2023-03-18T08:20:35;101294.31;;;9.97;23.30
62655;BME280;48717;55.556;37.816;2023-03-18T08:23:02;101318.16;;;10.03;22.97
62655;BME280;48717;55.556;37.816;2023-03-18T08:25:29;101283.53;;;9.87;23.66
62655;BME280;48717;55.556;37.816;2023-03-18T08:27:57;101292.97;;;10.14;23.76
62655;BME280;48717;55.556;37.816;2023-03-18T08:30:24;101307.47;;;10.32;22.93
62655;BME280;48717;55.556;37.816;2023-03-18T08:32:54;101260.91;;;10.34;22.55
62655;BME280;48717;55.556;37.816;2023-03-18T08:35:23;101265.44;;;10.40;22.10
62655;BME280;48717;55.556;37.816;2023-03-18T08:37:51;101299.44;;;10.64;23.11
62655;BME280;48717;55.556;37.816;2023-03-18T08:40:19;101299.75;;;10.80;22.04
62655;BME280;48717;55.556;37.816;2023-03-18T08:42:47;101257.78;;;10.49;22.83
62655;BME280;48717;55.556;37.816;2023-03-18T08:45:14;101276.47;;;10.60;22.44
62655;BME280;48717;55.556;37.816;2023-03-18T08:47:45;101299.63;;;10.74;22.24
62655;BME280;48717;55.556;37.816;2023-03-18T08:50:15;101290.31;;;10.90;21.56
62655;BME280;48717;55.556;37.816;2023-03-18T08:52:43;101287.22;;;10.69;22.11
62655;BME280;48717;55.556;37.816;2023-03-18T08:55:10;101299.28;;;10.56;22.86
62655;BME280;48717;55.556;37.816;2023-03-18T08:57:38;101289.41;;;10.49;21.13
62655;BME280;48717;55.556;37.816;2023-03-18T09:00:05;101269.22;;;10.51;21.57
62655;BME280;48717;55.556;37.816;2023-03-18T09:02:32;101288.00;;;11.05;20.86
62655;BME280;48717;55.556;37.816;2023-03-18T09:04:59;101265.34;;;11.65;20.05
62655;BME280;48717;55.556;37.816;2023-03-18T09:07:28;101258.31;;;11.17;20.64
62655;BME280;48717;55.556;37.816;2023-03-18T09:09:56;101274.28;;;10.80;20.22
62655;BME280;48717;55.556;37.816;2023-03-18T09:12:23;101274.22;;;10.40;19.48
62655;BME280;48717;55.556;37.816;2023-03-18T09:14:50;101245.53;;;10.14;21.29
62655;BME280;48717;55.556;37.816;2023-03-18T09:17:18;101270.91;;;10.48;20.70
62655;BME280;48717;55.556;37.816;2023-03-18T09:19:45;101274.97;;;10.72;19.29
62655;BME280;48717;55.556;37.816;2023-03-18T09:22:12;101254.38;;;10.55;19.32
62655;BME280;48717;55.556;37.816;2023-03-18T09:24:39;101244.63;;;10.51;19.68
62655;BME280;48717;55.556;37.816;2023-03-18T09:27:07;101249.16;;;10.56;19.22
62655;BME280;48717;55.556;37.816;2023-03-18T09:29:35;101232.84;;;10.36;20.08
62655;BME280;48717;55.556;37.816;2023-03-18T09:32:02;101261.56;;;10.62;20.49
62655;BME280;48717;55.556;37.816;2023-03-18T09:34:29;101252.63;;;10.55;19.37
62655;BME280;48717;55.556;37.816;2023-03-18T09:36:59;101226.84;;;10.43;18.51
62655;BME280;48717;55.556;37.816;2023-03-18T09:39:26;101258.09;;;10.63;19.24
62655;BME280;48717;55.556;37.816;2023-03-18T09:42:06;101248.53;;;10.68;19.41
62655;BME280;48717;55.556;37.816;2023-03-18T09:44:36;101222.19;;;10.31;19.48
62655;BME280;48717;55.556;37.816;2023-03-18T09:52:34;101242.50;;;10.74;19.50
62655;BME280;48717;55.556;37.816;2023-03-18T09:57:41;101151.72;;;10.24;18.72
62655;BME280;48717;55.556;37.816;2023-03-18T10:00:19;101243.44;;;10.78;18.40
62655;BME280;48717;55.556;37.816;2023-03-18T10:02:51;101140.63;;;10.39;18.32
62655;BME280;48717;55.556;37.816;2023-03-18T10:05:50;101098.66;;;10.49;17.35
62655;BME280;48717;55.556;37.816;2023-03-18T10:08:40;101205.69;;;11.27;17.43
62655;BME280;48717;55.556;37.816;2023-03-18T10:11:21;101220.34;;;11.58;17.32
62655;BME280;48717;55.556;37.816;2023-03-18T10:16:27;101225.25;;;11.38;17.74
62655;BME280;48717;55.556;37.816;2023-03-18T10:18:57;101144.97;;;11.27;16.57
62655;BME280;48717;55.556;37.816;2023-03-18T10:22:03;101129.59;;;11.04;17.49
62655;BME280;48717;55.556;37.816;2023-03-18T10:25:00;101163.53;;;11.33;16.86
62655;BME280;48717;55.556;37.816;2023-03-18T10:27:56;101222.28;;;11.70;16.75
62655;BME280;48717;55.556;37.816;2023-03-18T10:33:40;101218.63;;;11.62;17.22
62655;BME280;48717;55.556;37.816;2023-03-18T10:39:01;101194.91;;;11.65;17.18
62655;BME280;48717;55.556;37.816;2023-03-18T10:41:32;101197.59;;;12.25;17.10
62655;BME280;48717;55.556;37.816;2023-03-18T10:44:25;101176.19;;;12.07;18.13
62655;BME280;48717;55.556;37.816;2023-03-18T10:49:30;101177.06;;;12.06;16.99
62655;BME280;48717;55.556;37.816;2023-03-18T10:52:09;101180.91;;;12.30;17.02
62655;BME280;48717;55.556;37.816;2023-03-18T10:54:44;101191.38;;;12.20;16.55
62655;BME280;48717;55.556;37.816;2023-03-18T10:57:16;101189.13;;;12.50;16.77
62655;BME280;48717;55.556;37.816;2023-03-18T10:59:44;101188.38;;;12.62;17.26
62655;BME280;48717;55.556;37.816;2023-03-18T11:02:31;101187.63;;;12.72;16.78
62655;BME280;48717;55.556;37.816;2023-03-18T11:05:02;101166.63;;;12.85;15.64
62655;BME280;48717;55.556;37.816;2023-03-18T11:07:30;101185.19;;;12.91;15.87
62655;BME280;48717;55.556;37.816;2023-03-18T11:10:17;101174.41;;;12.72;17.10
62655;BME280;48717;55.556;37.816;2023-03-18T11:12:49;101152.63;;;12.97;16.95
62655;BME280;48717;55.556;37.816;2023-03-18T11:15:21;101178.50;;;13.27;16.36
62655;BME280;48717;55.556;37.816;2023-03-18T11:17:50;101139.53;;;13.14;16.34
62655;BME280;48717;55.556;37.816;2023-03-18T11:20:21;101169.50;;;13.10;17.48
62655;BME280;48717;55.556;37.816;2023-03-18T11:22:52;101111.03;;;12.88;17.09
62655;BME280;48717;55.556;37.816;2023-03-18T11:25:25;101171.41;;;13.23;17.19
62655;BME280;48717;55.556;37.816;2023-03-18T11:28:03;101173.38;;;13.46;17.20
62655;BME280;48717;55.556;37.816;2023-03-18T11:30:43;101101.50;;;13.02;17.27
62655;BME280;48717;55.556;37.816;2023-03-18T11:33:14;101155.44;;;13.14;16.67
62655;BME280;48717;55.556;37.816;2023-03-18T11:38:19;101170.41;;;13.10;16.99
62655;BME280;48717;55.556;37.816;2023-03-18T11:40:47;101151.97;;;13.21;16.57
62655;BME280;48717;55.556;37.816;2023-03-18T11:43:20;101160.25;;;13.55;16.86
62655;BME280;48717;55.556;37.816;2023-03-18T11:48:28;101155.72;;;13.45;16.79
62655;BME280;48717;55.556;37.816;2023-03-18T11:54:08;101139.97;;;13.64;16.07
62655;BME280;48717;55.556;37.816;2023-03-18T11:56:56;101134.81;;;13.79;15.38
62655;BME280;48717;55.556;37.816;2023-03-18T12:02:27;101137.56;;;13.96;16.24
62655;BME280;48717;55.556;37.816;2023-03-18T12:05:10;101116.16;;;13.65;15.54
62655;BME280;48717;55.556;37.816;2023-03-18T12:13:50;101143.53;;;13.63;15.02
62655;BME280;48717;55.556;37.816;2023-03-18T12:24:28;101130.41;;;13.83;15.17
62655;BME280;48717;55.556;37.816;2023-03-18T12:27:09;101133.06;;;13.83;15.49
62655;BME280;48717;55.556;37.816;2023-03-18T12:38:31;101131.22;;;13.71;15.49
62655;BME280;48717;55.556;37.816;2023-03-18T12:46:54;101104.63;;;13.55;14.95
62655;BME280;48717;55.556;37.816;2023-03-18T12:49:38;101078.88;;;13.40;15.62
62655;BME280;48717;55.556;37.816;2023-03-18T12:52:23;101082.34;;;13.36;14.36
62655;BME280;48717;55.556;37.816;2023-03-18T12:55:00;101111.06;;;14.00;14.13
62655;BME280;48717;55.556;37.816;2023-03-18T12:57:47;101090.78;;;14.13;13.73
62655;BME280;48717;55.556;37.816;2023-03-18T13:03:33;101106.91;;;14.62;13.69
62655;BME280;48717;55.556;37.816;2023-03-18T13:08:40;101097.88;;;14.14;13.50
62655;BME280;48717;55.556;37.816;2023-03-18T13:13:43;100989.59;;;13.31;14.08
62655;BME280;48717;55.556;37.816;2023-03-18T13:16:14;101096.97;;;14.05;13.78
62655;BME280;48717;55.556;37.816;2023-03-18T13:18:51;101091.53;;;13.88;13.29
62655;BME280;48717;55.556;37.816;2023-03-18T13:21:21;101085.41;;;13.95;14.11
62655;BME280;48717;55.556;37.816;2023-03-18T13:29:04;101072.84;;;13.62;14.46
62655;BME280;48717;55.556;37.816;2023-03-18T13:32:02;101083.88;;;13.06;14.38
62655;BME280;48717;55.556;37.816;2023-03-18T13:43:11;101063.66;;;13.19;14.56
62655;BME280;48717;55.556;37.816;2023-03-18T13:45:44;101063.53;;;13.02;15.28
62655;BME280;48717;55.556;37.816;2023-03-18T13:48:16;101051.28;;;13.12;14.98
62655;BME280;48717;55.556;37.816;2023-03-18T13:50:46;101052.13;;;13.11;15.02
62655;BME280;48717;55.556;37.816;2023-03-18T13:58:19;101050.44;;;12.31;15.43
62655;BME280;48717;55.556;37.816;2023-03-18T14:16:46;101053.97;;;10.13;17.87
62655;BME280;48717;55.556;37.816;2023-03-18T14:19:20;101053.59;;;9.95;18.19
62655;BME280;48717;55.556;37.816;2023-03-18T14:22:05;101053.59;;;9.95;17.49
62655;BME280;48717;55.556;37.816;2023-03-18T14:24:33;101045.88;;;9.62;18.03
62655;BME280;48717;55.556;37.816;2023-03-18T14:29:40;101020.91;;;9.08;17.73
62655;BME280;48717;55.556;37.816;2023-03-18T14:34:58;101039.69;;;8.86;17.53
62655;BME280;48717;55.556;37.816;2023-03-18T14:37:27;101039.88;;;8.60;18.19
62655;BME280;48717;55.556;37.816;2023-03-18T14:40:04;101034.78;;;8.34;18.07
62655;BME280;48717;55.556;37.816;2023-03-18T14:42:56;101038.31;;;8.04;18.50
62655;BME280;48717;55.556;37.816;2023-03-18T14:45:31;101041.78;;;7.73;18.77
62655;BME280;48717;55.556;37.816;2023-03-18T14:48:03;101038.63;;;7.55;20.79
62655;BME280;48717;55.556;37.816;2023-03-18T14:50:41;101030.16;;;7.37;19.10
62655;BME280;48717;55.556;37.816;2023-03-18T14:55:56;101038.41;;;6.94;19.23